createdAt,value
2024-02-19T00:00:13.825Z,6.22
2024-02-19T00:03:16.236Z,6.20
2024-02-19T00:06:19.330Z,6.20
2024-02-19T00:09:21.076Z,6.19
2024-02-19T00:12:22.837Z,6.20
2024-02-19T00:15:24.609Z,6.20
2024-02-19T00:18:27.132Z,6.18
2024-02-19T00:21:30.305Z,6.17
2024-02-19T00:24:32.209Z,6.17
2024-02-19T00:27:33.896Z,6.17
2024-02-19T00:30:35.650Z,6.18
2024-02-19T00:33:37.520Z,6.18
2024-02-19T00:36:40.654Z,6.21
2024-02-19T00:40:18.366Z,6.23
2024-02-19T00:43:20.300Z,6.26
2024-02-19T00:46:21.986Z,6.29
2024-02-19T00:49:23.958Z,6.35
2024-02-19T00:52:26.925Z,6.38
2024-02-19T00:55:28.578Z,6.42
2024-02-19T00:58:30.233Z,6.44
2024-02-19T01:01:32.114Z,6.46
2024-02-19T01:04:34.929Z,6.48
2024-02-19T01:07:38.278Z,6.47
2024-02-19T01:10:40.434Z,6.45
2024-02-19T01:13:42.968Z,6.45
2024-02-19T01:16:44.659Z,6.43
2024-02-19T01:19:46.494Z,6.37
2024-02-19T01:22:49.740Z,6.31
2024-02-19T01:25:53.551Z,6.28
2024-02-19T01:28:55.374Z,6.25
2024-02-19T01:31:57.051Z,6.21
2024-02-19T01:34:58.922Z,6.21
2024-02-19T01:38:02.664Z,6.16
2024-02-19T01:41:04.764Z,6.14
2024-02-19T01:44:09.012Z,6.08
2024-02-19T01:47:10.914Z,6.06
2024-02-19T01:50:12.514Z,6.01
2024-02-19T01:53:15.985Z,6.01
2024-02-19T01:56:18.278Z,5.98
2024-02-19T01:59:22.653Z,5.96
2024-02-19T02:02:24.370Z,5.96
2024-02-19T02:05:26.064Z,5.94
2024-02-19T02:08:29.072Z,5.93
2024-02-19T02:11:30.839Z,5.92
2024-02-19T02:14:32.757Z,5.88
2024-02-19T02:17:34.662Z,5.85
2024-02-19T02:20:36.420Z,5.81
2024-02-19T02:23:39.485Z,5.78
2024-02-19T02:26:42.518Z,5.77
2024-02-19T02:29:44.206Z,5.76
2024-02-19T02:32:45.911Z,5.78
2024-02-19T02:35:47.633Z,5.77
2024-02-19T02:38:49.511Z,5.76
2024-02-19T02:41:52.764Z,5.71
2024-02-19T02:44:54.439Z,5.67
2024-02-19T02:47:56.236Z,5.62
2024-02-19T02:50:58.207Z,5.60
2024-02-19T02:53:59.894Z,5.60
2024-02-19T02:57:03.005Z,5.53
2024-02-19T03:00:05.389Z,5.47
2024-02-19T03:03:07.157Z,5.42
2024-02-19T03:06:08.835Z,5.38
2024-02-19T03:09:10.740Z,5.35
2024-02-19T03:12:13.721Z,5.35
2024-02-19T03:15:15.522Z,5.29
2024-02-19T03:18:17.391Z,5.24
2024-02-19T03:21:19.101Z,5.22
2024-02-19T03:24:21.187Z,5.20
2024-02-19T03:27:24.183Z,5.18
2024-02-19T03:30:25.853Z,5.17
2024-02-19T03:33:27.597Z,5.16
2024-02-19T03:36:29.279Z,5.16
2024-02-19T03:39:31.002Z,5.13
2024-02-19T03:42:34.548Z,5.10
2024-02-19T03:45:36.248Z,5.07
2024-02-19T03:48:38.537Z,5.04
2024-02-19T03:51:40.365Z,5.03
2024-02-19T03:54:42.100Z,5.00
2024-02-19T03:57:45.665Z,4.98
2024-02-19T04:00:47.551Z,4.97
2024-02-19T04:03:49.426Z,4.98
2024-02-19T04:06:51.166Z,4.98
2024-02-19T04:09:53.004Z,4.96
2024-02-19T04:12:56.034Z,4.97
2024-02-19T04:15:57.817Z,4.98
2024-02-19T04:18:59.665Z,4.97
2024-02-19T04:22:01.497Z,4.97
2024-02-19T04:25:03.454Z,4.95
2024-02-19T04:28:06.980Z,4.97
2024-02-19T04:31:08.832Z,4.96
2024-02-19T04:34:10.746Z,4.95
2024-02-19T04:37:12.540Z,4.98
2024-02-19T04:40:15.084Z,4.95
2024-02-19T04:43:18.423Z,4.95
2024-02-19T04:46:36.561Z,4.98
2024-02-19T04:49:38.633Z,4.98
2024-02-19T04:52:58.119Z,5.00
2024-02-19T04:56:00.121Z,4.99
2024-02-19T04:59:03.241Z,5.00
2024-02-19T05:02:05.042Z,5.01
2024-02-19T05:05:07.319Z,5.01
2024-02-19T05:08:09.206Z,5.00
2024-02-19T05:11:11.366Z,4.98
2024-02-19T05:14:14.477Z,4.98
2024-02-19T05:17:16.291Z,4.95
2024-02-19T05:20:18.053Z,4.94
2024-02-19T05:23:19.749Z,4.96
2024-02-19T05:26:24.752Z,4.95
2024-02-19T05:29:27.896Z,4.97
2024-02-19T05:32:29.712Z,4.98
2024-02-19T05:35:31.899Z,4.97
2024-02-19T05:38:44.982Z,4.98
2024-02-19T05:41:47.486Z,4.97
2024-02-19T05:44:49.445Z,5.00
2024-02-19T05:47:51.534Z,4.99
2024-02-19T05:50:53.233Z,4.96
2024-02-19T05:53:56.341Z,4.93
2024-02-19T05:56:58.421Z,4.88
2024-02-19T06:00:00.596Z,4.89
2024-02-19T06:03:05.971Z,4.90
2024-02-19T06:06:08.084Z,4.90
2024-02-19T06:09:11.587Z,4.90
2024-02-19T06:12:14.601Z,4.89
2024-02-19T06:15:16.354Z,4.90
2024-02-19T06:18:18.383Z,4.91
2024-02-19T06:21:20.444Z,4.91
2024-02-19T06:24:23.956Z,4.90
2024-02-19T06:27:25.691Z,4.92
2024-02-19T06:30:27.330Z,4.90
2024-02-19T06:33:29.093Z,4.91
2024-02-19T06:36:30.865Z,4.91
2024-02-19T06:39:36.383Z,4.92
2024-02-19T06:42:38.139Z,4.93
2024-02-19T06:45:39.855Z,4.94
2024-02-19T06:48:42.663Z,4.97
2024-02-19T06:51:44.374Z,4.96
2024-02-19T06:54:47.451Z,5.00
2024-02-19T06:57:49.226Z,5.00
2024-02-19T07:00:51.080Z,5.03
2024-02-19T07:03:53.280Z,5.04
2024-02-19T07:06:56.279Z,5.07
2024-02-19T07:09:59.683Z,5.06
2024-02-19T07:13:01.580Z,5.10
2024-02-19T07:16:03.498Z,5.10
2024-02-19T07:19:05.373Z,5.14
2024-02-19T07:22:07.142Z,5.15
2024-02-19T07:25:17.306Z,5.16
2024-02-19T07:28:23.405Z,5.18
2024-02-19T07:31:25.116Z,5.20
2024-02-19T07:34:27.089Z,5.20
2024-02-19T07:37:28.848Z,5.23
2024-02-19T07:40:35.152Z,5.24
2024-02-19T07:43:37.392Z,5.27
2024-02-19T07:46:39.393Z,5.29
2024-02-19T07:49:41.196Z,5.30
2024-02-19T07:52:44.608Z,5.33
2024-02-19T07:55:47.721Z,5.36
2024-02-19T07:58:49.303Z,5.36
2024-02-19T08:01:51.159Z,5.40
2024-02-19T08:04:52.880Z,5.42
2024-02-19T08:07:54.815Z,5.45
2024-02-19T08:10:57.864Z,5.48
2024-02-19T08:13:59.664Z,5.49
2024-02-19T08:17:01.356Z,5.51
2024-02-19T08:20:04.734Z,5.53
2024-02-19T08:23:06.686Z,5.57
2024-02-19T08:26:09.762Z,5.57
2024-02-19T08:29:11.669Z,5.63
2024-02-19T08:32:13.341Z,5.68
2024-02-19T08:35:15.317Z,5.71
2024-02-19T08:38:17.061Z,5.78
2024-02-19T08:41:21.313Z,5.80
2024-02-19T08:44:23.077Z,5.84
2024-02-19T08:47:24.772Z,5.90
2024-02-19T08:50:26.485Z,5.95
2024-02-19T08:53:29.346Z,6.01
2024-02-19T08:56:32.318Z,5.99
2024-02-19T08:59:33.938Z,6.05
2024-02-19T09:02:35.949Z,6.10
2024-02-19T09:05:37.929Z,6.17
2024-02-19T09:08:39.600Z,6.19
2024-02-19T09:11:42.679Z,6.25
2024-02-19T09:14:44.339Z,6.39
2024-02-19T09:17:46.140Z,6.56
2024-02-19T09:20:47.914Z,6.82
2024-02-19T09:23:49.737Z,6.90
2024-02-19T09:26:53.393Z,6.68
2024-02-19T09:29:57.038Z,6.61
2024-02-19T09:32:58.740Z,6.60
2024-02-19T09:36:00.473Z,6.65
2024-02-19T09:39:02.190Z,6.70
2024-02-19T09:42:05.500Z,6.79
2024-02-19T09:45:09.519Z,6.86
2024-02-19T09:48:12.157Z,6.93
2024-02-19T09:51:28.823Z,6.94
2024-02-19T09:54:34.977Z,7.11
2024-02-19T09:57:38.213Z,7.04
2024-02-19T10:00:40.084Z,7.14
2024-02-19T10:03:42.200Z,7.16
2024-02-19T10:06:46.010Z,7.08
2024-02-19T10:09:48.614Z,7.07
2024-02-19T10:12:52.123Z,7.16
2024-02-19T10:15:54.042Z,7.22
2024-02-19T10:19:03.579Z,7.13
2024-02-19T10:22:05.534Z,7.00
2024-02-19T10:25:08.999Z,6.95
2024-02-19T10:28:12.527Z,6.91
2024-02-19T10:31:17.086Z,6.86
2024-02-19T10:34:19.131Z,6.83
2024-02-19T10:37:21.052Z,6.79
2024-02-19T10:40:22.987Z,6.80
2024-02-19T10:43:26.242Z,6.83
2024-02-19T10:46:28.267Z,6.81
2024-02-19T10:49:30.371Z,6.80
2024-02-19T10:52:34.571Z,6.84
2024-02-19T10:55:45.936Z,6.89
2024-02-19T10:58:57.419Z,6.90
2024-02-19T11:02:07.248Z,6.94
2024-02-19T11:05:10.146Z,6.96
2024-02-19T11:08:21.832Z,7.05
2024-02-19T11:11:23.980Z,7.04
2024-02-19T11:14:29.194Z,7.02
2024-02-19T11:17:31.073Z,7.04
2024-02-19T11:20:32.821Z,7.05
2024-02-19T11:23:35.288Z,7.03
2024-02-19T11:26:40.415Z,7.05
2024-02-19T11:29:47.872Z,7.14
2024-02-19T11:32:59.362Z,7.16
2024-02-19T11:36:01.470Z,7.41
2024-02-19T11:39:03.502Z,7.50
2024-02-19T11:42:06.030Z,7.63
2024-02-19T11:45:11.201Z,7.64
2024-02-19T11:48:13.426Z,7.63
2024-02-19T11:51:15.630Z,7.67
2024-02-19T11:54:17.604Z,7.67
2024-02-19T11:57:19.695Z,7.70
2024-02-19T12:00:23.109Z,7.67
2024-02-19T12:03:25.290Z,7.61
2024-02-19T12:06:27.296Z,7.59
2024-02-19T12:09:29.101Z,7.62
2024-02-19T12:12:31.957Z,7.68
2024-02-19T12:15:35.162Z,7.74
2024-02-19T12:18:37.089Z,7.68
2024-02-19T12:21:38.999Z,7.70
2024-02-19T12:24:40.674Z,7.72
2024-02-19T12:27:42.793Z,7.77
2024-02-19T12:30:46.123Z,7.98
2024-02-19T12:33:48.150Z,7.99
2024-02-19T12:36:53.002Z,8.06
2024-02-19T12:39:54.979Z,8.04
2024-02-19T12:42:57.327Z,8.03
2024-02-19T12:46:01.376Z,8.08
2024-02-19T12:49:04.043Z,8.00
2024-02-19T12:52:06.979Z,7.97
2024-02-19T12:55:09.087Z,8.04
2024-02-19T12:58:12.950Z,8.14
2024-02-19T13:01:24.666Z,8.19
2024-02-19T13:04:33.538Z,8.18
2024-02-19T13:07:35.991Z,8.15
2024-02-19T13:10:37.878Z,8.13
2024-02-19T13:13:39.805Z,8.17
2024-02-19T13:16:43.507Z,8.19
2024-02-19T13:19:47.362Z,8.14
2024-02-19T13:22:50.078Z,8.19
2024-02-19T13:25:52.033Z,8.18
2024-02-19T13:28:53.719Z,8.22
2024-02-19T13:31:56.838Z,8.20
2024-02-19T13:34:58.670Z,8.20
2024-02-19T13:38:04.156Z,8.21
2024-02-19T13:41:06.330Z,8.19
2024-02-19T13:44:08.346Z,8.18
2024-02-19T13:47:11.865Z,8.12
2024-02-19T13:50:14.153Z,8.04
2024-02-19T13:53:19.345Z,8.01
2024-02-19T13:56:21.399Z,7.95
2024-02-19T13:59:25.282Z,7.89
2024-02-19T14:02:30.786Z,7.88
2024-02-19T14:05:34.376Z,7.84
2024-02-19T14:08:38.866Z,7.81
2024-02-19T14:11:41.290Z,7.77
2024-02-19T14:14:45.057Z,7.74
2024-02-19T14:17:49.530Z,7.77
2024-02-19T14:20:52.634Z,7.79
2024-02-19T14:23:55.762Z,7.82
2024-02-19T14:27:00.518Z,7.80
2024-02-19T14:30:06.081Z,7.81
2024-02-19T14:33:10.606Z,7.80
2024-02-19T14:36:12.940Z,7.80
2024-02-19T14:39:21.366Z,7.81
2024-02-19T14:42:25.382Z,7.89
2024-02-19T14:45:27.539Z,7.96
2024-02-19T14:48:31.808Z,8.02
2024-02-19T14:51:33.991Z,8.02
2024-02-19T14:54:36.046Z,7.97
2024-02-19T14:57:40.892Z,7.96
2024-02-19T15:00:48.710Z,7.96
2024-02-19T15:03:52.061Z,7.96
2024-02-19T15:06:56.508Z,7.97
2024-02-19T15:10:03.273Z,7.99
2024-02-19T15:13:05.889Z,7.99
2024-02-19T15:16:08.073Z,8.02
2024-02-19T15:19:14.184Z,8.02
2024-02-19T15:22:17.878Z,8.01
2024-02-19T15:25:22.238Z,8.02
2024-02-19T15:28:24.893Z,8.02
2024-02-19T15:31:28.468Z,8.02
2024-02-19T15:34:33.374Z,8.02
2024-02-19T15:37:35.522Z,8.04
2024-02-19T15:40:37.796Z,8.05
2024-02-19T15:43:42.750Z,8.04
2024-02-19T15:46:44.429Z,8.04
2024-02-19T15:49:48.645Z,8.04
2024-02-19T15:52:58.280Z,8.04
2024-02-19T15:56:06.716Z,8.03
2024-02-19T15:59:08.358Z,8.01
2024-02-19T16:02:10.236Z,7.99
2024-02-19T16:05:13.465Z,7.99
2024-02-19T16:08:32.868Z,7.94
2024-02-19T16:11:34.684Z,7.93
2024-02-19T16:14:40.007Z,7.91
2024-02-19T16:17:41.808Z,7.88
2024-02-19T16:20:45.460Z,7.87
2024-02-19T16:23:47.164Z,7.85
2024-02-19T16:26:48.945Z,7.83
2024-02-19T16:29:50.885Z,7.80
2024-02-19T16:32:52.648Z,7.78
2024-02-19T16:35:55.856Z,7.75
2024-02-19T16:38:57.549Z,7.72
2024-02-19T16:41:59.372Z,7.68
2024-02-19T16:45:01.200Z,7.61
2024-02-19T16:48:06.045Z,7.56
2024-02-19T16:51:12.592Z,7.53
2024-02-19T16:54:17.912Z,7.51
2024-02-19T16:57:19.744Z,7.51
2024-02-19T17:00:21.828Z,7.50
2024-02-19T17:03:23.646Z,7.52
2024-02-19T17:06:27.535Z,7.50
2024-02-19T17:09:29.602Z,7.49
2024-02-19T17:12:31.743Z,7.48
2024-02-19T17:15:33.612Z,7.49
2024-02-19T17:18:35.623Z,7.48
2024-02-19T17:21:41.867Z,7.49
2024-02-19T17:24:45.933Z,7.48
2024-02-19T17:27:49.713Z,7.49
2024-02-19T17:30:53.892Z,7.49
2024-02-19T17:33:56.109Z,7.50
2024-02-19T17:36:59.329Z,7.49
2024-02-19T17:40:01.773Z,7.50
2024-02-19T17:43:04.249Z,7.52
2024-02-19T17:46:07.537Z,7.52
2024-02-19T17:49:12.028Z,7.51
2024-02-19T17:52:15.342Z,7.51
2024-02-19T17:55:17.613Z,7.51
2024-02-19T17:58:20.670Z,7.53
2024-02-19T18:01:26.538Z,7.55
2024-02-19T18:04:28.608Z,7.57
2024-02-19T18:07:31.908Z,7.57
2024-02-19T18:10:33.818Z,7.57
2024-02-19T18:13:35.783Z,7.58
2024-02-19T18:16:40.003Z,7.58
2024-02-19T18:19:42.085Z,7.56
2024-02-19T18:22:45.255Z,7.57
2024-02-19T18:25:47.038Z,7.59
2024-02-19T18:28:48.692Z,7.59
2024-02-19T18:31:56.486Z,7.59
2024-02-19T18:35:03.701Z,7.61
2024-02-19T18:38:07.793Z,7.59
2024-02-19T18:41:10.119Z,7.57
2024-02-19T18:44:11.933Z,7.58
2024-02-19T18:47:13.857Z,7.57
2024-02-19T18:50:15.730Z,7.56
2024-02-19T18:53:18.917Z,7.54
2024-02-19T18:56:20.685Z,7.55
2024-02-19T18:59:22.372Z,7.55
2024-02-19T19:02:24.290Z,7.54
2024-02-19T19:05:27.014Z,7.50
2024-02-19T19:08:30.689Z,7.48
2024-02-19T19:11:33.551Z,7.45
2024-02-19T19:14:38.150Z,7.41
2024-02-19T19:17:43.412Z,7.37
2024-02-19T19:20:45.285Z,7.31
2024-02-19T19:23:50.239Z,7.24
2024-02-19T19:26:52.027Z,7.14
2024-02-19T19:29:53.854Z,7.08
2024-02-19T19:32:55.646Z,7.01
2024-02-19T19:35:57.521Z,6.96
2024-02-19T19:39:00.644Z,6.92
2024-02-19T19:42:02.463Z,6.88
2024-02-19T19:45:04.582Z,6.86
2024-02-19T19:48:06.860Z,6.80
2024-02-19T19:51:08.726Z,6.78
2024-02-19T19:54:12.088Z,6.73
2024-02-19T19:57:13.961Z,6.70
2024-02-19T20:00:16.071Z,6.65
2024-02-19T20:03:17.932Z,6.62
2024-02-19T20:06:19.749Z,6.59
2024-02-19T20:09:24.592Z,6.56
2024-02-19T20:12:26.369Z,6.53
2024-02-19T20:15:28.081Z,6.51
2024-02-19T20:18:29.958Z,6.46
2024-02-19T20:21:31.778Z,6.44
2024-02-19T20:24:35.068Z,6.41
2024-02-19T20:27:36.766Z,6.40
2024-02-19T20:30:38.356Z,6.39
2024-02-19T20:33:40.255Z,6.39
2024-02-19T20:36:42.867Z,6.41
2024-02-19T20:39:47.126Z,6.39
2024-02-19T20:42:55.315Z,6.39
2024-02-19T20:45:58.077Z,6.38
2024-02-19T20:48:59.934Z,6.37
2024-02-19T20:52:02.806Z,6.36
2024-02-19T20:55:06.717Z,6.37
2024-02-19T20:58:08.483Z,6.39
2024-02-19T21:01:10.237Z,6.39
2024-02-19T21:04:11.961Z,6.40
2024-02-19T21:07:13.706Z,6.42
2024-02-19T21:10:16.938Z,6.43
2024-02-19T21:13:18.751Z,6.43
2024-02-19T21:16:22.132Z,6.45
2024-02-19T21:19:24.913Z,6.46
2024-02-19T21:22:28.698Z,6.47
2024-02-19T21:25:32.627Z,6.46
2024-02-19T21:28:34.448Z,6.46
2024-02-19T21:31:36.115Z,6.48
2024-02-19T21:34:39.016Z,6.49
2024-02-19T21:37:40.970Z,6.51
2024-02-19T21:40:44.244Z,6.54
2024-02-19T21:43:45.957Z,6.55
2024-02-19T21:46:47.750Z,6.56
2024-02-19T21:49:49.419Z,6.58
2024-02-19T21:52:51.013Z,6.61
2024-02-19T21:55:54.090Z,6.62
2024-02-19T21:58:55.795Z,6.61
2024-02-19T22:01:57.493Z,6.59
2024-02-19T22:04:59.465Z,6.59
2024-02-19T22:08:01.389Z,6.57
2024-02-19T22:11:04.584Z,6.54
2024-02-19T22:14:06.393Z,6.53
2024-02-19T22:17:08.264Z,6.53
2024-02-19T22:20:13.453Z,6.52
2024-02-19T22:23:15.067Z,6.51
2024-02-19T22:26:18.125Z,6.52
2024-02-19T22:29:19.761Z,6.51
2024-02-19T22:32:21.437Z,6.51
2024-02-19T22:35:23.188Z,6.49
2024-02-19T22:38:24.969Z,6.50
2024-02-19T22:41:29.898Z,6.49
2024-02-19T22:44:31.499Z,6.50
2024-02-19T22:47:34.865Z,6.47
2024-02-19T22:50:36.921Z,6.48
2024-02-19T22:53:38.484Z,6.44
2024-02-19T22:56:41.538Z,6.45
2024-02-19T22:59:44.499Z,6.43
2024-02-19T23:02:46.882Z,6.41
2024-02-19T23:05:48.608Z,6.43
2024-02-19T23:08:50.335Z,6.40
2024-02-19T23:11:53.386Z,6.39
2024-02-19T23:14:56.515Z,6.37
2024-02-19T23:17:58.542Z,6.38
2024-02-19T23:21:00.875Z,6.37
2024-02-19T23:24:03.445Z,6.37
2024-02-19T23:27:07.126Z,6.37
2024-02-19T23:30:09.188Z,6.37
2024-02-19T23:33:10.944Z,6.36
2024-02-19T23:36:12.756Z,6.35
2024-02-19T23:39:14.526Z,6.34
2024-02-19T23:42:17.612Z,6.31
2024-02-19T23:45:21.326Z,6.29
2024-02-19T23:48:23.086Z,6.28
2024-02-19T23:51:24.837Z,6.26
2024-02-19T23:54:27.269Z,6.23
2024-02-19T23:57:30.318Z,6.21
